Sendai, Japan
Current Conditions -  °F | °C
As of 2:00 PM on Saturday 25 Oct 2014 (Local Time) from RJSS Reporting Station
Clear Clear  
Wind Chill: 63°   Ceiling: Unl
Heat Index: 63°   Visibility: 6mi
Dew Point: 55°   Wind: 9mph
Humidity: 77%   Direction: 140°SE
Pressure: 30.15"   Gusts: NA
Location:  38.26°N, 140.89°E
Report Text: RJSS 250500Z 14008KT CAVOK 17/13 Q1021
Loading
Personal Weather Stations






























Interactive Weather Map
Tropical Storm Tracking
New forecast layout! Learn more

10-Day Weather Forecast

Advertisements
Track Severe Weather on mobile